Time;durP1;ratioP1;P1;durP2;ratioP2;P2;SDS_P1;SDS_P2;PMS_P1;PMS_P2;Temp;Humidity;BMP_temperature;BMP_pressure;BME280_temperature;BME280_humidity;BME280_pressure;Samples;Min_cycle;Max_cycle;Signal;HPM_P1;HPM_P2
2022/04/14 00:00:24;;;;;;;;;11.00;11.00;;;;;16.11;64.38;101263.13;5075791;27;45600;-65
2022/04/14 00:02:50;;;;;;;;;12.00;10.00;;;;;16.15;64.99;101274.50;5076162;27;45539;-63
2022/04/14 00:05:16;;;;;;;;;8.00;8.00;;;;;16.17;64.99;101271.75;5075705;27;45493;-65
2022/04/14 00:07:41;;;;;;;;;10.00;10.00;;;;;16.15;64.50;101270.94;5075754;27;45410;-66
2022/04/14 00:10:07;;;;;;;;;10.00;9.67;;;;;16.11;65.16;101264.94;5075870;27;45426;-66
2022/04/14 00:12:32;;;;;;;;;10.67;10.67;;;;;16.04;65.30;101264.38;5075878;28;45449;-66
2022/04/14 00:14:58;;;;;;;;;8.33;8.33;;;;;16.09;64.73;101267.69;5075649;27;45482;-64
2022/04/14 00:17:24;;;;;;;;;11.00;10.00;;;;;16.06;65.09;101274.91;5075452;27;45411;-61
2022/04/14 00:19:49;;;;;;;;;10.33;8.00;;;;;16.06;65.05;101281.06;5075848;27;45382;-63
2022/04/14 00:22:14;;;;;;;;;13.00;11.00;;;;;16.00;65.53;101261.94;5075559;27;45501;-64
2022/04/14 00:24:40;;;;;;;;;10.33;10.33;;;;;16.04;64.88;101274.13;5075290;27;45424;-62
2022/04/14 00:27:05;;;;;;;;;10.67;9.33;;;;;16.03;65.65;101267.94;5075392;27;45445;-62
2022/04/14 00:29:30;;;;;;;;;10.67;10.33;;;;;16.01;65.62;101266.31;5075578;27;45428;-64
2022/04/14 00:31:55;;;;;;;;;10.33;9.00;;;;;16.01;65.34;101275.16;5075420;27;45601;-65
2022/04/14 00:34:21;;;;;;;;;11.67;11.67;;;;;15.95;65.51;101258.63;5074117;27;45971;-63
2022/04/14 00:36:46;;;;;;;;;12.33;12.00;;;;;16.02;65.17;101260.09;5075348;27;45500;-63
2022/04/14 00:39:12;;;;;;;;;10.33;10.33;;;;;15.99;65.71;101263.75;5075366;27;45453;-66
2022/04/14 00:41:37;;;;;;;;;9.67;9.67;;;;;15.97;65.23;101264.75;5075453;28;45641;-62
2022/04/14 00:44:03;;;;;;;;;14.67;14.00;;;;;15.95;65.35;101259.50;5075197;27;45387;-65
2022/04/14 00:46:29;;;;;;;;;11.00;11.00;;;;;15.95;66.01;101256.00;5075076;27;45532;-65
2022/04/14 00:48:54;;;;;;;;;13.67;13.00;;;;;15.98;64.95;101269.09;5075216;27;45426;-64
2022/04/14 00:51:20;;;;;;;;;13.00;12.67;;;;;15.97;65.34;101265.59;5075383;27;45409;-65
2022/04/14 00:53:45;;;;;;;;;11.00;11.00;;;;;15.91;65.30;101268.56;5075143;27;45671;-62
2022/04/14 00:56:11;;;;;;;;;12.00;11.33;;;;;15.93;65.75;101268.47;5074996;27;45450;-64
2022/04/14 00:58:37;;;;;;;;;14.67;13.00;;;;;15.89;65.48;101265.09;5075370;27;45348;-65
2022/04/14 01:01:05;;;;;;;;;13.33;13.33;;;;;15.82;66.20;101258.34;5074858;28;45632;-63
2022/04/14 01:03:31;;;;;;;;;11.00;10.00;;;;;15.87;65.63;101270.47;5074878;27;46963;-66
2022/04/14 01:05:58;;;;;;;;;11.33;11.33;;;;;15.84;66.17;101265.31;5074422;27;45585;-65
2022/04/14 01:08:24;;;;;;;;;15.67;15.67;;;;;15.86;65.51;101274.06;5075148;28;45528;-63
2022/04/14 01:10:50;;;;;;;;;14.33;13.00;;;;;15.79;66.10;101267.31;5074971;28;45351;-63
2022/04/14 01:13:17;;;;;;;;;12.00;12.00;;;;;15.82;65.74;101271.59;5074956;27;46161;-66
2022/04/14 01:15:47;;;;;;;;;14.00;13.67;;;;;15.81;66.34;101272.56;5074748;27;45433;-63
2022/04/14 01:18:13;;;;;;;;;13.67;11.33;;;;;15.79;66.01;101271.75;5075117;27;45418;-62
2022/04/14 01:20:41;;;;;;;;;15.00;13.00;;;;;15.78;66.51;101272.69;5074939;27;45432;-66
2022/04/14 01:23:08;;;;;;;;;15.67;13.00;;;;;15.79;66.04;101267.31;5074813;27;46052;-62
2022/04/14 01:25:35;;;;;;;;;14.00;12.00;;;;;15.81;65.68;101273.41;5075097;27;45432;-62
2022/04/14 01:28:02;;;;;;;;;13.67;13.00;;;;;15.80;65.54;101270.84;5075022;27;45583;-66
2022/04/14 01:30:28;;;;;;;;;12.00;12.00;;;;;15.81;66.06;101277.84;5074748;27;45504;-65
2022/04/14 01:32:54;;;;;;;;;13.00;12.00;;;;;15.77;65.20;101271.84;5074784;27;45465;-64
2022/04/14 01:35:20;;;;;;;;;14.00;13.67;;;;;15.76;65.91;101274.56;5074772;27;45408;-64
2022/04/14 01:37:46;;;;;;;;;12.33;12.33;;;;;15.72;66.22;101270.34;5074982;27;45465;-63
2022/04/14 01:40:12;;;;;;;;;13.00;12.00;;;;;15.71;66.00;101281.88;5074742;27;45448;-65
2022/04/14 01:42:37;;;;;;;;;15.00;13.33;;;;;15.73;66.36;101282.66;5074679;28;46230;-66
2022/04/14 01:45:03;;;;;;;;;12.00;12.00;;;;;15.70;66.73;101283.66;5075796;27;45324;-62
2022/04/14 01:47:28;;;;;;;;;14.67;13.00;;;;;15.66;66.70;101285.56;5078177;27;45411;-64
2022/04/14 01:49:54;;;;;;;;;16.00;14.00;;;;;15.67;66.17;101279.31;5078012;27;50723;-65
2022/04/14 01:52:19;;;;;;;;;15.67;12.33;;;;;15.65;66.70;101273.22;5077991;27;46063;-63
2022/04/14 01:54:45;;;;;;;;;16.00;14.00;;;;;15.68;66.32;101277.53;5077840;28;45500;-64
2022/04/14 01:57:10;;;;;;;;;15.00;14.33;;;;;15.70;65.79;101273.06;5077374;27;45432;-64
2022/04/14 01:59:35;;;;;;;;;14.00;14.00;;;;;15.73;66.52;101275.56;5077279;27;45457;-64
2022/04/14 02:02:01;;;;;;;;;11.00;11.00;;;;;15.73;66.12;101274.69;5077689;28;45451;-61
2022/04/14 02:04:26;;;;;;;;;11.00;11.00;;;;;15.68;66.96;101270.47;5077728;28;45467;-61
2022/04/14 02:06:52;;;;;;;;;12.67;12.33;;;;;15.65;66.53;101270.56;5077992;28;45429;-63
2022/04/14 02:09:17;;;;;;;;;13.67;13.67;;;;;15.63;67.28;101268.91;5077925;28;45366;-61
2022/04/14 02:11:42;;;;;;;;;15.00;15.00;;;;;15.61;67.04;101268.16;5077671;28;46704;-63
2022/04/14 02:14:08;;;;;;;;;13.33;12.33;;;;;15.58;66.86;101260.31;5077673;28;45503;-64
2022/04/14 02:16:33;;;;;;;;;12.00;12.00;;;;;15.57;67.30;101259.44;5077847;27;45363;-64
2022/04/14 02:18:58;;;;;;;;;14.00;14.00;;;;;15.61;66.76;101265.50;5077742;28;45484;-64
2022/04/14 02:21:24;;;;;;;;;16.00;14.00;;;;;15.63;66.49;101266.25;5077408;28;46593;-66
2022/04/14 02:23:49;;;;;;;;;11.67;10.00;;;;;15.64;66.89;101268.84;5077742;28;45497;-62
2022/04/14 02:26:16;;;;;;;;;13.00;13.00;;;;;15.65;66.84;101265.25;5077616;28;45417;-64
2022/04/14 02:28:41;;;;;;;;;14.67;14.67;;;;;15.65;66.35;101254.66;5077583;28;45658;-64
2022/04/14 02:31:06;;;;;;;;;17.33;12.67;;;;;15.65;66.28;101262.59;5077249;28;45382;-62
2022/04/14 02:33:32;;;;;;;;;16.00;13.67;;;;;15.62;66.64;101259.25;5077399;28;45385;-64
2022/04/14 02:35:57;;;;;;;;;13.67;13.33;;;;;15.61;66.11;101266.34;5077563;28;45428;-65
2022/04/14 02:38:22;;;;;;;;;16.67;15.67;;;;;15.62;67.07;101268.06;5077422;28;45362;-66
2022/04/14 02:40:48;;;;;;;;;20.00;18.67;;;;;15.62;67.10;101264.56;5077138;28;46012;-64
2022/04/14 02:43:13;;;;;;;;;18.67;17.67;;;;;15.61;67.18;101255.75;5077196;28;45361;-64
2022/04/14 02:45:39;;;;;;;;;16.00;15.67;;;;;15.59;66.75;101265.56;5077293;28;45442;-66
2022/04/14 02:48:04;;;;;;;;;15.33;15.00;;;;;15.59;67.11;101272.66;5077249;28;45595;-64
2022/04/14 02:50:30;;;;;;;;;19.67;18.00;;;;;15.58;66.99;101271.81;5076787;28;45446;-66
2022/04/14 02:52:55;;;;;;;;;21.00;18.00;;;;;15.58;66.82;101270.91;5077218;28;45466;-65
2022/04/14 02:55:21;;;;;;;;;13.67;13.67;;;;;15.45;67.07;101258.22;5077112;28;45743;-64
2022/04/14 02:57:48;;;;;;;;;17.33;14.67;;;;;15.54;66.90;101275.50;5075968;28;45679;-62
2022/04/14 03:00:14;;;;;;;;;12.33;12.33;;;;;15.58;66.48;101274.44;5076583;28;45525;-64
2022/04/14 03:02:40;;;;;;;;;15.33;15.33;;;;;15.55;66.52;101271.91;5076662;28;45522;-66
2022/04/14 03:05:07;;;;;;;;;15.33;14.33;;;;;15.55;67.53;101265.75;5076941;28;45405;-66
2022/04/14 03:07:33;;;;;;;;;17.67;16.67;;;;;15.57;66.89;101270.06;5076738;27;45417;-64
2022/04/14 03:09:58;;;;;;;;;16.67;16.67;;;;;15.56;66.55;101271.00;5076547;28;46052;-66
2022/04/14 03:12:24;;;;;;;;;13.00;13.00;;;;;15.59;67.08;101270.00;5076804;28;45458;-65
2022/04/14 03:14:50;;;;;;;;;15.00;15.00;;;;;15.54;67.15;101261.41;5076481;28;45522;-63
2022/04/14 03:17:15;;;;;;;;;17.67;16.67;;;;;15.54;66.23;101259.59;5076613;28;45675;-65
2022/04/14 03:19:41;;;;;;;;;15.67;14.33;;;;;15.54;67.16;101258.75;5076446;28;45354;-63
2022/04/14 03:22:07;;;;;;;;;15.00;15.00;;;;;15.54;67.62;101270.19;5076435;28;45386;-65
2022/04/14 03:24:32;;;;;;;;;14.33;14.33;;;;;15.53;66.81;101268.50;5076471;28;45473;-63
2022/04/14 03:26:57;;;;;;;;;17.00;14.00;;;;;15.54;67.12;101278.16;5076500;28;45420;-65
2022/04/14 03:29:23;;;;;;;;;11.33;10.67;;;;;15.54;67.01;101280.81;5076394;28;46002;-65
2022/04/14 03:31:48;;;;;;;;;18.00;18.00;;;;;15.48;67.22;101270.50;5076504;28;45431;-63
2022/04/14 03:34:14;;;;;;;;;17.67;16.33;;;;;15.52;66.99;101276.50;5076767;28;45480;-65
2022/04/14 03:36:39;;;;;;;;;19.00;19.00;;;;;15.49;67.45;101280.16;5076540;28;45426;-66
2022/04/14 03:39:04;;;;;;;;;14.67;14.33;;;;;15.50;66.91;101284.53;5076179;28;45806;-64
2022/04/14 03:41:30;;;;;;;;;19.67;18.00;;;;;15.50;66.64;101281.88;5076259;28;45473;-66
2022/04/14 03:43:55;;;;;;;;;19.00;16.67;;;;;15.53;66.55;101283.50;5076248;28;45378;-65
2022/04/14 03:46:21;;;;;;;;;18.00;18.00;;;;;15.49;66.83;101277.50;5076338;28;45655;-64
2022/04/14 03:48:47;;;;;;;;;22.00;20.33;;;;;15.45;66.46;101281.22;5075944;28;46298;-65
2022/04/14 03:51:14;;;;;;;;;18.00;17.33;;;;;15.51;66.49;101288.06;5076034;28;45405;-62
2022/04/14 03:53:43;;;;;;;;;16.00;16.00;;;;;15.48;66.96;101277.59;5076327;28;45458;-61
2022/04/14 03:56:08;;;;;;;;;19.33;18.00;;;;;15.46;67.03;101283.78;5074774;28;45611;-63
2022/04/14 03:58:34;;;;;;;;;18.67;18.67;;;;;15.47;66.85;101289.94;5075976;28;46167;-66
2022/04/14 04:00:59;;;;;;;;;21.00;21.00;;;;;15.48;66.20;101290.84;5075974;28;45471;-63
2022/04/14 04:03:25;;;;;;;;;24.67;21.00;;;;;15.46;67.37;101298.84;5076143;28;45466;-66
2022/04/14 04:05:50;;;;;;;;;18.67;18.67;;;;;15.46;67.31;101304.16;5075862;28;45676;-63
2022/04/14 04:08:16;;;;;;;;;15.67;15.67;;;;;15.41;67.28;101299.03;5075513;28;45402;-62
2022/04/14 04:10:41;;;;;;;;;18.33;17.67;;;;;15.39;66.74;101306.22;5075848;28;45442;-62
2022/04/14 04:13:07;;;;;;;;;18.33;15.33;;;;;15.33;67.04;101292.38;5076060;28;45379;-65
2022/04/14 04:15:32;;;;;;;;;14.33;14.33;;;;;15.33;67.46;101303.81;5075932;28;45517;-63
2022/04/14 04:17:57;;;;;;;;;18.00;16.00;;;;;15.34;67.54;101294.97;5075643;28;46188;-64
2022/04/14 04:20:23;;;;;;;;;16.67;14.67;;;;;15.33;67.50;101284.41;5075309;27;45477;-64
2022/04/14 04:22:48;;;;;;;;;15.67;15.67;;;;;15.38;67.03;101293.03;5075563;28;45890;-66
2022/04/14 04:25:13;;;;;;;;;17.00;16.00;;;;;15.38;67.29;101285.06;5075713;28;45412;-62
2022/04/14 04:27:39;;;;;;;;;19.33;18.00;;;;;15.37;67.44;101275.41;5075447;28;45629;-66
2022/04/14 04:30:06;;;;;;;;;20.67;16.33;;;;;15.39;67.36;101273.53;5075371;28;45918;-63
2022/04/14 04:32:33;;;;;;;;;18.33;17.00;;;;;15.39;66.83;101279.72;5075618;28;45427;-64
2022/04/14 04:35:06;;;;;;;;;15.00;15.00;;;;;15.33;67.29;101276.47;5075262;28;45436;-65
2022/04/14 04:37:32;;;;;;;;;21.00;18.67;;;;;15.35;66.59;101279.91;5074686;27;45472;-64
2022/04/14 04:39:58;;;;;;;;;16.00;16.00;;;;;15.37;67.03;101283.38;5075094;28;45567;-64
2022/04/14 04:42:23;;;;;;;;;22.33;20.33;;;;;15.37;67.17;101293.97;5075538;28;45409;-63
2022/04/14 04:44:49;;;;;;;;;16.67;16.67;;;;;15.37;67.27;101305.44;5075356;28;45647;-62
2022/04/14 04:47:15;;;;;;;;;16.33;16.33;;;;;15.35;67.45;101307.28;5073610;28;46104;-62
2022/04/14 04:49:41;;;;;;;;;19.67;19.00;;;;;15.34;67.17;101309.97;5075259;27;45488;-62
2022/04/14 04:52:06;;;;;;;;;16.67;16.67;;;;;15.28;67.67;101308.47;5075269;27;45346;-63
2022/04/14 04:54:32;;;;;;;;;15.00;15.00;;;;;15.19;67.51;101315.03;5075338;28;45362;-66
2022/04/14 04:56:57;;;;;;;;;20.00;17.00;;;;;15.15;67.77;101318.75;5075010;28;45412;-63
2022/04/14 04:59:23;;;;;;;;;19.67;19.00;;;;;15.19;68.29;101320.31;5073619;28;45469;-66
2022/04/14 05:01:48;;;;;;;;;19.67;19.67;;;;;15.20;67.01;101321.19;5075110;28;45433;-66
2022/04/14 05:04:13;;;;;;;;;23.33;20.00;;;;;15.18;67.59;101323.91;5075062;28;45389;-62
2022/04/14 05:06:39;;;;;;;;;17.67;17.67;;;;;15.10;67.42;101322.50;5074447;28;55363;-65
2022/04/14 05:09:05;;;;;;;;;22.00;20.00;;;;;15.13;67.74;101322.41;5075042;28;45405;-65
2022/04/14 05:11:31;;;;;;;;;18.67;18.67;;;;;15.19;67.76;101332.72;5073392;28;45480;-63
2022/04/14 05:13:57;;;;;;;;;19.33;17.67;;;;;15.17;67.55;101319.53;5075040;28;45507;-64
2022/04/14 05:16:22;;;;;;;;;20.33;18.33;;;;;15.17;67.12;101330.13;5074634;28;46224;-65
2022/04/14 05:18:48;;;;;;;;;20.00;19.00;;;;;15.17;67.63;101318.66;5074834;28;45391;-65
2022/04/14 05:21:14;;;;;;;;;18.33;16.33;;;;;15.09;67.73;101310.19;5077605;28;45462;-65
2022/04/14 05:23:39;;;;;;;;;19.67;19.00;;;;;15.16;67.37;101322.25;5077293;28;45397;-63
2022/04/14 05:26:05;;;;;;;;;20.33;19.67;;;;;15.13;67.19;101327.69;5078119;28;45429;-62
2022/04/14 05:28:30;;;;;;;;;19.00;19.00;;;;;15.12;67.48;101329.44;5078175;28;45482;-65
2022/04/14 05:30:55;;;;;;;;;22.67;20.33;;;;;15.12;67.65;101328.59;5078614;28;45449;-65
2022/04/14 05:33:21;;;;;;;;;20.00;17.33;;;;;15.11;67.13;101329.53;5078512;28;45597;-65
2022/04/14 05:35:46;;;;;;;;;21.33;20.00;;;;;15.11;67.64;101341.00;5078146;28;50606;-66
2022/04/14 05:38:11;;;;;;;;;19.00;19.00;;;;;15.08;67.71;101330.53;5076945;28;45369;-65
2022/04/14 05:40:41;;;;;;;;;19.33;19.33;;;;;15.09;67.86;101334.88;5076941;28;45392;-62
2022/04/14 05:43:13;;;;;;;;;20.67;19.67;;;;;15.09;66.67;101340.19;5076609;28;45655;-64
2022/04/14 05:45:39;;;;;;;;;19.33;19.00;;;;;15.10;66.75;101349.00;5078289;28;46757;-63
2022/04/14 05:48:05;;;;;;;;;20.00;20.00;;;;;15.08;67.22;101346.44;5077870;28;45557;-62
2022/04/14 05:50:30;;;;;;;;;22.00;20.00;;;;;15.01;67.44;101351.09;5078040;28;45503;-65
2022/04/14 05:52:57;;;;;;;;;22.00;21.00;;;;;15.05;66.90;101354.50;5076524;28;45377;-63
2022/04/14 05:55:22;;;;;;;;;21.00;20.67;;;;;15.07;66.60;101354.44;5077817;28;45576;-64
2022/04/14 05:57:47;;;;;;;;;22.33;22.33;;;;;15.03;68.04;101353.69;5077774;28;45429;-62
2022/04/14 06:00:13;;;;;;;;;23.67;21.33;;;;;15.01;66.99;101350.25;5077691;28;45525;-64
2022/04/14 06:02:39;;;;;;;;;21.67;20.33;;;;;15.06;67.14;101360.66;5076470;28;45524;-62
2022/04/14 06:05:05;;;;;;;;;24.67;21.67;;;;;15.05;68.04;101362.47;5077828;28;46836;-64
2022/04/14 06:07:30;;;;;;;;;22.50;22.00;;;;;15.06;67.78;101358.00;5077751;28;45483;-65
2022/04/14 06:09:55;;;;;;;;;23.67;21.00;;;;;15.08;67.86;101361.47;5075814;28;45373;-65
2022/04/14 06:12:21;;;;;;;;;21.33;21.33;;;;;15.05;67.11;101351.84;5077819;28;45596;-65
2022/04/14 06:14:46;;;;;;;;;20.33;18.67;;;;;15.08;67.46;101350.88;5077550;28;46090;-67
2022/04/14 06:17:11;;;;;;;;;22.67;22.00;;;;;15.13;67.27;101357.69;5077428;28;45467;-63
2022/04/14 06:19:38;;;;;;;;;24.00;21.33;;;;;15.12;66.73;101350.66;5077556;28;45457;-64
2022/04/14 06:22:04;;;;;;;;;23.00;22.00;;;;;15.15;68.04;101350.56;5077497;28;45563;-61
2022/04/14 06:24:31;;;;;;;;;22.00;22.00;;;;;15.18;67.35;101352.22;5077326;28;47131;-66
2022/04/14 06:26:57;;;;;;;;;22.33;21.33;;;;;15.04;66.85;101318.31;5077473;28;45508;-63
2022/04/14 06:29:22;;;;;;;;;25.67;25.00;;;;;15.13;67.64;101344.44;5077505;28;45792;-67
2022/04/14 06:31:48;;;;;;;;;27.33;27.33;;;;;15.20;67.67;101359.13;5077477;28;45438;-64
2022/04/14 06:34:13;;;;;;;;;31.00;28.67;;;;;15.15;67.49;101366.44;5077418;28;45921;-64
2022/04/14 06:36:39;;;;;;;;;33.00;32.33;;;;;15.17;67.89;101375.16;5077274;27;45475;-63
2022/04/14 06:39:05;;;;;;;;;36.33;33.33;;;;;15.17;67.91;101387.56;5077310;28;45471;-65
2022/04/14 06:41:30;;;;;;;;;30.67;28.67;;;;;15.08;67.96;101393.25;5077687;28;45553;-67
2022/04/14 06:43:55;;;;;;;;;30.33;29.33;;;;;14.98;68.31;101383.03;5077189;28;45880;-63
2022/04/14 06:46:21;;;;;;;;;26.33;25.67;;;;;14.99;68.77;101384.75;5077341;28;45453;-66
2022/04/14 06:48:46;;;;;;;;;29.33;29.33;;;;;14.94;67.63;101388.53;5077439;28;45370;-64
2022/04/14 06:51:12;;;;;;;;;31.33;29.00;;;;;14.94;67.91;101388.53;5077048;28;45402;-63
2022/04/14 06:53:38;;;;;;;;;26.00;23.67;;;;;14.91;68.70;101391.28;5076949;28;46238;-64
2022/04/14 06:56:05;;;;;;;;;32.67;31.67;;;;;14.94;68.55;101392.03;5076903;28;45443;-63
2022/04/14 06:58:30;;;;;;;;;26.33;26.33;;;;;15.01;68.61;101396.13;5076870;27;45455;-64
2022/04/14 07:00:56;;;;;;;;;28.33;27.33;;;;;15.02;68.00;101394.38;5076506;28;45425;-63
2022/04/14 07:03:26;;;;;;;;;33.33;30.67;;;;;15.03;68.16;101396.94;5076549;28;45491;-63
2022/04/14 07:05:56;;;;;;;;;34.00;30.67;;;;;15.08;67.92;101398.56;5076859;28;45375;-63
2022/04/14 07:08:24;;;;;;;;;38.33;34.00;;;;;15.07;68.44;101391.50;5077031;28;45445;-64
2022/04/14 07:10:50;;;;;;;;;36.00;34.00;;;;;15.18;67.53;101402.56;5075461;28;45621;-63
2022/04/14 07:13:15;;;;;;;;;36.00;34.00;;;;;15.25;68.28;101404.84;5076392;28;46045;-66
2022/04/14 07:15:40;;;;;;;;;41.67;35.33;;;;;15.13;68.32;101370.09;5076502;28;45467;-64
2022/04/14 07:18:06;;;;;;;;;39.33;34.67;;;;;15.26;67.21;101387.19;5076628;28;45416;-65
2022/04/14 07:20:31;;;;;;;;;38.33;34.00;;;;;15.40;67.49;101410.47;5076625;28;45332;-64
2022/04/14 07:22:59;;;;;;;;;34.00;32.67;;;;;15.44;66.96;101412.03;5076529;28;45432;-65
2022/04/14 07:25:24;;;;;;;;;40.00;34.33;;;;;15.42;67.89;101403.28;5076484;28;45361;-62
2022/04/14 07:27:50;;;;;;;;;38.33;34.00;;;;;15.46;67.07;101413.69;5076188;28;45420;-62
2022/04/14 07:30:15;;;;;;;;;44.67;37.00;;;;;15.49;67.07;101420.66;5076229;28;45645;-64
2022/04/14 07:32:43;;;;;;;;;40.67;34.67;;;;;15.53;67.02;101408.13;5075955;28;46301;-64
2022/04/14 07:35:09;;;;;;;;;38.00;35.00;;;;;15.56;66.80;101406.22;5074668;28;45488;-65
2022/04/14 07:37:36;;;;;;;;;42.67;35.33;;;;;15.66;66.21;101411.97;5076263;27;45449;-64
2022/04/14 07:40:02;;;;;;;;;36.67;32.67;;;;;15.68;67.10;101413.66;5076390;28;45388;-64
2022/04/14 07:42:38;;;;;;;;;40.00;34.33;;;;;15.74;66.32;101415.19;5075307;28;46556;-66
2022/04/14 07:45:05;;;;;;;;;38.67;34.33;;;;;15.78;66.66;101410.63;5075995;28;45473;-63
2022/04/14 07:47:31;;;;;;;;;36.00;34.00;;;;;15.81;66.29;101413.13;5076128;27;45399;-64
2022/04/14 07:49:56;;;;;;;;;38.00;33.67;;;;;15.80;65.93;101412.28;5075827;28;45557;-65
2022/04/14 07:52:22;;;;;;;;;49.33;39.67;;;;;15.83;66.10;101420.09;5075622;28;46074;-65
2022/04/14 07:54:47;;;;;;;;;37.00;35.00;;;;;15.85;65.82;101423.56;5076006;28;45435;-63
2022/04/14 07:57:13;;;;;;;;;36.00;33.33;;;;;15.79;65.15;101418.50;5075882;28;45546;-64
2022/04/14 07:59:38;;;;;;;;;39.00;33.33;;;;;15.83;65.61;101419.25;5075734;28;45683;-62
2022/04/14 08:02:04;;;;;;;;;36.33;34.00;;;;;15.82;66.37;101421.00;5075581;28;45889;-64
2022/04/14 08:04:32;;;;;;;;;39.33;35.00;;;;;15.83;65.63;101430.72;5075717;28;45403;-65
2022/04/14 08:06:57;;;;;;;;;38.67;35.67;;;;;15.84;65.74;101427.13;5075978;28;45387;-63
2022/04/14 08:09:23;;;;;;;;;34.00;31.33;;;;;15.84;65.21;101423.59;5075788;28;45740;-64
2022/04/14 08:11:49;;;;;;;;;36.00;33.33;;;;;15.86;65.57;101430.56;5075678;28;46133;-62
2022/04/14 08:14:14;;;;;;;;;35.33;33.67;;;;;15.83;65.71;101414.78;5075934;28;45508;-65
2022/04/14 08:16:40;;;;;;;;;45.33;37.67;;;;;15.84;65.42;101415.66;5075729;28;45468;-66
2022/04/14 08:19:05;;;;;;;;;46.67;37.33;;;;;15.92;64.86;101418.81;5075797;28;45763;-66
2022/04/14 08:21:31;;;;;;;;;43.00;36.67;;;;;15.94;65.18;101424.94;5074081;28;45536;-66
2022/04/14 08:23:58;;;;;;;;;40.33;35.33;;;;;15.94;64.82;101419.63;5075242;28;45503;-64
2022/04/14 08:26:25;;;;;;;;;37.00;33.67;;;;;16.00;64.95;101422.00;5075406;28;45531;-65
2022/04/14 08:28:53;;;;;;;;;44.67;37.33;;;;;16.02;65.03;101425.44;5075163;28;45360;-64
2022/04/14 08:31:21;;;;;;;;;34.00;33.00;;;;;16.07;65.13;101433.22;5074968;28;46017;-62
2022/04/14 08:33:47;;;;;;;;;37.67;34.67;;;;;16.10;63.87;101433.91;5075114;28;45488;-62
2022/04/14 08:36:15;;;;;;;;;35.00;32.67;;;;;16.10;64.85;101425.97;5075366;28;45480;-65
2022/04/14 08:38:41;;;;;;;;;37.33;33.00;;;;;16.19;64.05;101429.13;5075315;28;45413;-66
2022/04/14 08:41:07;;;;;;;;;39.00;34.67;;;;;16.21;64.58;101444.06;5074991;28;45370;-65
2022/04/14 08:43:35;;;;;;;;;39.33;33.33;;;;;16.23;63.41;101431.56;5075183;28;45385;-65
2022/04/14 08:46:03;;;;;;;;;36.33;33.33;;;;;16.27;63.13;101433.16;5074963;28;45335;-64
2022/04/14 08:48:29;;;;;;;;;37.00;33.00;;;;;16.29;63.75;101431.28;5074576;27;45482;-66
2022/04/14 08:50:55;;;;;;;;;39.33;35.33;;;;;16.32;63.68;101430.28;5074370;27;45514;-63
2022/04/14 08:53:26;;;;;;;;;39.00;33.33;;;;;16.30;63.09;101424.19;5074316;27;45426;-66
2022/04/14 08:55:52;;;;;;;;;39.00;35.67;;;;;16.32;63.82;101430.28;5077124;28;45509;-63
2022/04/14 08:58:27;;;;;;;;;43.33;37.00;;;;;16.36;63.51;101434.50;5078605;28;45492;-66
2022/04/14 09:00:54;;;;;;;;;46.67;40.00;;;;;16.39;64.16;101429.09;5078072;28;46045;-65
2022/04/14 09:03:20;;;;;;;;;45.00;39.33;;;;;16.44;64.48;101431.50;5078396;28;45500;-63
2022/04/14 09:05:45;;;;;;;;;45.33;39.00;;;;;16.34;63.72;101402.75;5077148;28;45412;-63
2022/04/14 09:08:11;;;;;;;;;47.00;40.00;;;;;16.34;63.72;101404.53;5078761;28;45544;-64
2022/04/14 09:10:37;;;;;;;;;47.33;37.33;;;;;16.34;62.46;101404.53;5078355;28;45520;-63
2022/04/14 09:13:02;;;;;;;;;46.00;38.33;;;;;16.53;62.38;101437.25;5078412;27;45481;-63
2022/04/14 09:15:28;;;;;;;;;48.00;40.00;;;;;16.53;63.07;101436.41;5078350;28;45385;-63
2022/04/14 09:17:54;;;;;;;;;41.00;36.00;;;;;16.57;62.70;101438.81;5077000;28;45294;-66
2022/04/14 09:20:34;;;;;;;;;39.00;35.00;;;;;16.52;61.50;101438.19;5078292;28;46203;-63
2022/04/14 09:23:23;;;;;;;;;35.67;32.00;;;;;16.52;62.06;101437.31;5078288;28;45535;-62
2022/04/14 09:26:13;;;;;;;;;38.67;34.33;;;;;16.62;62.24;101441.25;5078153;28;45400;-65
2022/04/14 09:28:40;;;;;;;;;35.00;33.00;;;;;16.67;60.69;101441.06;5078220;28;45418;-64
2022/04/14 09:31:10;;;;;;;;;36.67;33.00;;;;;16.66;60.56;101440.22;5077726;28;46961;-65
2022/04/14 09:33:44;;;;;;;;;34.00;31.67;;;;;16.69;61.19;101437.41;5076827;28;45527;-63
2022/04/14 09:36:16;;;;;;;;;33.00;31.33;;;;;16.75;60.63;101441.56;5078156;28;45413;-63
2022/04/14 09:38:53;;;;;;;;;35.33;30.00;;;;;16.82;61.21;101443.03;5078032;28;45503;-62
2022/04/14 09:41:32;;;;;;;;;32.00;28.00;;;;;16.87;59.89;101445.44;5078030;28;46037;-63
2022/04/14 09:44:00;;;;;;;;;26.67;24.67;;;;;16.90;59.49;101435.56;5078075;28;45525;-65
2022/04/14 09:46:26;;;;;;;;;27.67;24.33;;;;;16.93;60.27;101435.41;5077774;28;45492;-63
2022/04/14 09:49:03;;;;;;;;;28.67;26.67;;;;;16.99;59.80;101434.22;5077880;28;45459;-64
2022/04/14 09:51:29;;;;;;;;;28.33;28.33;;;;;17.03;59.05;101432.28;5077766;28;46062;-63
2022/04/14 09:54:04;;;;;;;;;25.00;25.00;;;;;17.04;59.22;101420.72;5077701;28;45468;-65
2022/04/14 09:56:42;;;;;;;;;23.33;22.00;;;;;17.06;59.74;101426.81;5077735;27;45315;-66
2022/04/14 09:59:10;;;;;;;;;31.00;29.33;;;;;17.05;59.01;101423.28;5077700;27;45474;-66
2022/04/14 10:01:36;;;;;;;;;19.00;17.33;;;;;17.14;59.18;101432.59;5077259;28;45409;-65
2022/04/14 10:04:02;;;;;;;;;26.67;26.33;;;;;17.11;58.82;101424.78;5077304;28;45407;-62
2022/04/14 10:06:27;;;;;;;;;25.67;25.67;;;;;17.19;59.00;101430.56;5076848;28;45464;-64
2022/04/14 10:08:53;;;;;;;;;31.33;29.00;;;;;17.23;58.25;101432.16;5077325;28;45430;-64
2022/04/14 10:11:27;;;;;;;;;27.33;26.67;;;;;17.24;58.38;101428.56;5076976;28;46027;-66
2022/04/14 10:13:53;;;;;;;;;29.00;26.00;;;;;17.28;58.35;101435.47;5076900;28;45502;-65
2022/04/14 10:16:23;;;;;;;;;19.33;18.33;;;;;17.31;57.94;101429.97;5075685;28;45397;-62
2022/04/14 10:18:52;;;;;;;;;19.67;19.67;;;;;17.31;57.27;101416.69;5077098;28;45537;-63
2022/04/14 10:21:18;;;;;;;;;24.67;23.33;;;;;17.34;57.86;101416.53;5076995;28;45445;-66
2022/04/14 10:23:46;;;;;;;;;21.00;21.00;;;;;17.25;57.32;101398.41;5076946;28;45525;-63
2022/04/14 10:26:12;;;;;;;;;24.67;24.33;;;;;17.40;57.35;101418.88;5077038;28;45399;-65
2022/04/14 10:28:39;;;;;;;;;31.33;27.00;;;;;17.43;56.86;101418.72;5076961;27;45627;-65
2022/04/14 10:31:05;;;;;;;;;25.00;23.00;;;;;17.41;56.78;101412.63;5076744;28;45500;-63
2022/04/14 10:33:32;;;;;;;;;23.00;23.00;;;;;17.39;56.67;101411.00;5076705;27;45474;-64
2022/04/14 10:35:57;;;;;;;;;17.33;17.33;;;;;17.47;56.57;101407.94;5075537;28;45466;-63
2022/04/14 10:38:34;;;;;;;;;18.00;18.00;;;;;17.48;55.48;101407.00;5076903;27;45421;-63
2022/04/14 10:41:12;;;;;;;;;17.00;16.33;;;;;17.48;55.02;101410.50;5076315;27;45608;-66
2022/04/14 10:43:41;;;;;;;;;20.00;20.00;;;;;17.55;55.88;101411.06;5076394;27;45531;-63
2022/04/14 10:46:06;;;;;;;;;20.33;19.67;;;;;17.56;56.41;101408.31;5076440;27;45430;-66
2022/04/14 10:48:39;;;;;;;;;24.00;23.00;;;;;17.59;55.66;101407.28;5076654;27;45535;-64
2022/04/14 10:51:13;;;;;;;;;22.33;22.33;;;;;17.63;56.19;101393.75;5076422;28;46580;-66
2022/04/14 10:54:03;;;;;;;;;21.33;21.00;;;;;17.67;55.97;101397.97;5076260;27;45722;-65
2022/04/14 10:56:38;;;;;;;;;19.33;18.00;;;;;17.74;55.72;101405.66;5076010;27;45390;-66
2022/04/14 10:59:04;;;;;;;;;18.33;17.33;;;;;17.76;55.84;101404.63;5076017;28;45421;-65
2022/04/14 11:01:45;;;;;;;;;18.50;17.50;;;;;17.79;54.96;101401.84;5075867;28;46235;-64
2022/04/14 11:04:35;;;;;;;;;15.00;15.00;;;;;17.85;54.32;101405.97;5076156;28;45403;-65
2022/04/14 11:07:14;;;;;;;;;24.67;23.67;;;;;17.86;53.96;101405.00;5075787;27;45517;-64